Résultats de la course en cours

Pos.Dos.NomCat.Pos Cat.Temps totalToursMeil.TourAu TourDernier tour|Statut|Tours
1181Let's BondOuvert123:53:049500:13:092500:14:36|11:53:04| Tours
2204JUST DO ITJunior123:49:529400:13:032600:14:43|11:49:52| Tours
3150Team Jonathan LavalliereOuvert223:56:279400:12:562600:15:41|11:56:27| Tours
4114Les Trains NocturnesOuvert323:51:039300:13:222700:14:31|11:51:03| Tours
583Hydroserre MirabelOuvert423:51:209300:13:382100:14:49|11:51:20| Tours
667FL55/DynamiqueOuvert523:53:079300:13:162600:14:23|11:53:07| Tours
7424/4 TONYOuvert623:54:199300:13:082600:16:19|11:54:19| Tours
8198Trembros(e)Junior223:56:299200:13:152400:15:09|11:56:29| Tours
9196DWB ConsultantsOuvert723:56:599200:13:13200:15:10|11:56:59| Tours
10140Sauf une fois au chaletOuvert823:57:299200:13:322500:14:44|11:57:29| Tours
11179Pink PanthersJunior323:46:009100:13:211700:15:16|| Tours
12157The Knights Who Say SkiOuvert923:46:179100:13:281300:15:18|| Tours
13109Les poils du NordOuvert1023:46:309100:13:362500:14:59|| Tours
14121McCarthy TétraultOuvert1123:47:369100:13:121300:15:03|| Tours
15117M Groupe ConseilOuvert1223:51:599100:13:37300:15:14|11:51:59| Tours
16221Équipe Helly Hansen 2Ouvert1323:55:379100:13:102400:15:09|11:55:37| Tours
1718CGI SPEEDOuvert1423:55:519100:13:162400:15:21|11:55:51| Tours
1864FaskenitesOuvert1523:46:589000:13:082400:15:10|| Tours
1927Énergie Brookfield 3Ouvert1623:47:489000:13:112600:15:44|| Tours
20128Okiok SpeedOuvert1723:50:049000:13:402500:15:22|11:50:04| Tours
21185Rebels ClubOuvert1823:53:319000:13:482100:15:01|11:53:31| Tours
2220Cisco 2018Ouvert1923:56:289000:13:362000:15:27|11:56:28| Tours
23190PwC Ski 2Ouvert2023:57:009000:13:252300:15:19|11:57:00| Tours
24165Desjardins Marchés des CapitauxOuvert2123:59:119000:13:05500:14:27|11:59:11| Tours
25160TyroparcOuvert2223:46:178900:13:29500:14:58|| Tours
26127OHSHOFemme123:53:518900:13:301300:15:27|11:53:51| Tours
2750Équipe de La Presse 1Ouvert2323:55:038900:13:172500:15:21|11:55:03| Tours
28145SkiBumsOuvert2423:57:138900:13:202100:14:42|11:57:13| Tours
29175Équipe de Transbec-DAIOuvert2523:57:468900:13:461200:14:18|11:57:46| Tours
3030Énergir- le nouveau Gaz MétroOuvert2623:49:348800:13:581200:15:43|11:49:34| Tours
31167Après Ski ProsOuvert2723:53:548800:13:231300:15:24|11:53:54| Tours
3290Je suis Charlie 5Ouvert2823:55:398800:13:381500:15:38|11:55:39| Tours
33206Altitude PositiveOuvert2923:55:408800:13:402400:15:38|11:55:40| Tours
34177KIDS FOR KIDSJunior423:56:178800:14:142200:15:53|11:56:17| Tours
35108Les Pas Couchés !Ouvert3023:57:468800:13:452000:15:26|11:57:46| Tours
36148Team AZEK & TimberTechOuvert3123:58:178800:13:571800:14:48|11:58:17| Tours
37155TEAM24hOuvert3223:59:368800:14:022400:14:50|11:59:36| Tours
38154Team Tamarack 3Ouvert3323:43:238700:13:422500:17:20|11:49:18| Tours
3959Équipe FidelityOuvert3423:49:058700:12:572100:15:03|11:49:05| Tours
40159Two AonOuvert3523:50:078700:14:331200:15:51|11:50:07| Tours
4172Gestion M.J.L.S.Ouvert3623:51:088700:13:54600:15:56|11:51:08| Tours
4251Équipe de PDuboisOuvert3723:53:448700:13:392400:15:18|11:53:44| Tours
43142Scotiabank trail blazersOuvert3823:54:178700:14:081800:16:17|11:54:17| Tours
4438Équipe de CIMA+Ouvert3923:56:468700:13:422500:16:54|11:56:46| Tours
45152Team Tamarack 1Ouvert4023:43:238600:13:082500:17:24|11:49:20| Tours
462Énergie Brookfield 1Ouvert4123:44:068600:13:581900:16:43|| Tours
4793KeolisOuvert4223:45:148600:14:022000:16:22|| Tours
4855 H2OOuvert4323:46:208600:14:361900:16:24|| Tours
49237Team Sporting Life/ In Memory of Borden HumOuvert4423:46:448600:13:53600:15:27|| Tours
5022CRCS Mud Hero No StarsOuvert4523:48:108600:14:002300:15:47|| Tours
51183Équipe de Benoit DenisOuvert4623:50:238600:13:582400:15:25|11:50:23| Tours
52115Équipe LaroseOuvert4723:54:498600:14:182400:16:01|11:54:49| Tours
5382Horizon TremblantOuvert4823:55:458600:13:53600:15:55|11:55:45| Tours
5441Équipe de CSMBOuvert4923:57:078600:14:271100:16:13|11:57:07| Tours
5528Énergie Brookfield 4Ouvert5023:58:098600:13:372400:15:54|11:58:09| Tours
5656Équipe de Toitures PME inc.Ouvert5123:58:578600:14:191800:14:50|11:58:57| Tours
5732Équipe BC2 SkiOuvert5223:58:588600:13:051600:14:53|11:58:58| Tours
5853CrevierOuvert5323:39:468500:13:441500:16:55|| Tours
5971Morency Société d’AvocatsOuvert5423:47:288500:14:192500:16:58|| Tours
60207College Saint-Sacrement 2Ouvert5523:47:318500:14:151900:16:39|| Tours
61238Jersey Boys'sOuvert5623:47:408500:13:521200:16:54|| Tours
62200Keurig CanadaOuvert5723:48:128500:13:351600:16:58|| Tours
6396KPMG and friendsOuvert5823:49:018500:13:401600:16:48|| Tours
6442Équipe CourchesneOuvert5923:51:438500:14:021200:15:27|11:51:43| Tours
6514Brago ConstructionOuvert6023:52:008500:14:292200:16:31|11:52:00| Tours
6616Carlsberg bar mtlOuvert6123:52:388500:13:202300:17:16|11:52:38| Tours
67223Hitachi Capital Canada 1Ouvert6223:52:548500:13:222400:15:08|11:52:54| Tours
68123mnubo ski bumsOuvert6323:54:188500:13:38300:16:01|11:54:18| Tours
6954Équipe de Ski STELPRO 2018Ouvert6423:55:338500:14:081500:16:08|11:55:33| Tours
70187Équipe Henry ScheinOuvert6523:57:088500:13:172400:15:49|11:57:08| Tours
71172Les audacieux DesjardinsOuvert6623:57:158500:13:592200:16:11|11:57:15| Tours
7248Équipe de ISPE CANADAOuvert6723:57:188500:13:112100:16:22|11:57:18| Tours
7326Énergie Brookfield 2Ouvert6823:57:328500:13:47500:16:09|11:57:32| Tours
7437Équipe de Carrière Mont-St-Hilaire inc.Ouvert6923:58:048500:14:542000:15:02|11:58:04| Tours
75111Team Beau’sOuvert7023:59:408500:13:43600:17:55|11:59:40| Tours
7624donneurs d'espoirs 1 / Whitehaven VM / helly hanseOuvert7123:45:438400:14:05400:17:16|| Tours
77101Les aciers RegifabOuvert7223:46:068400:13:492400:15:39|| Tours
78191PwC Ski 4Ouvert7323:48:188400:14:061300:15:13|| Tours
7965FL55 - The Good FriendsOuvert7423:49:538400:13:32500:14:58|11:49:53| Tours
80189PwC Ski 3Ouvert7523:55:058400:14:032100:15:43|11:55:05| Tours
81132Cirque du Soleil - QuidamOuvert7623:56:298400:14:50300:16:03|11:56:29| Tours
82194Les Robins des boisOuvert7723:56:458400:14:052100:16:10|11:56:45| Tours
8374Groupe Leclair équipe de ski 1Ouvert7823:59:338400:13:471200:17:25|11:59:33| Tours
84219Énergie 94,3Ouvert7923:45:128300:14:041500:18:42|| Tours
8544Pour AntoineOuvert8023:47:268300:09:038300:09:03|| Tours
86119Maisons HROuvert8123:47:388300:14:021600:17:34|| Tours
8758Équipe EY 1Ouvert8223:47:558300:14:262300:15:44|| Tours
88192Roland BergerOuvert8323:53:198300:14:351000:15:02|11:53:19| Tours
8963Equipe WCOuvert8423:54:208300:14:221400:16:18|11:54:20| Tours
90156Les Honey BadgersOuvert8523:54:358300:13:321500:15:17|11:54:35| Tours
9169FL55/RedbirdsOuvert8623:55:078300:14:36700:15:52|11:55:07| Tours
9278Groupe Module ConstructionOuvert8723:56:488300:13:351900:17:00|11:56:48| Tours
9361Équipe PCIOuvert8823:59:018300:13:411500:16:48|11:59:01| Tours
94153Team Tamarack 2Ouvert8924:00:538300:14:43200:17:18|11:49:16| Tours
95174Erivan-Gecom / les InsomniaquesOuvert9023:47:598200:13:39500:17:35|| Tours
96215Fondation TremblantOuvert9123:48:028200:14:34400:15:44|| Tours
9781HatchOuvert9223:50:268200:14:211000:16:02|11:50:26| Tours
98118M&M et compagnieOuvert9323:51:058200:14:34700:15:04|11:51:05| Tours
99180Collège Saint-Sacrement 3Junior523:51:238200:14:43300:15:38|11:51:23| Tours
100222Omnicom Media Group SkiOuvert9423:51:448200:13:571500:16:53|11:51:44| Tours
101203Helly Hansen TremblantOuvert9523:52:378200:13:582100:16:16|11:52:37| Tours
10260DS AvocatsOuvert9623:53:278200:14:062300:17:11|11:53:27| Tours
10370GCM RÉALISEOuvert9723:55:548200:14:052200:16:05|11:55:54| Tours
10449Frosted FlakesFemme223:56:308200:13:571700:16:06|11:56:30| Tours
10587Jazz AviationOuvert9823:57:508200:14:29400:15:23|11:57:50| Tours
10676Groupe Luminaires S1Ouvert9923:58:228200:13:451400:16:24|11:58:22| Tours
107235TD Rive-SudOuvert10023:43:518100:14:061300:19:57|| Tours
108210Rogers SKIOuvert10123:44:238100:13:351400:16:08|| Tours
109135Les ChicksPowerFemme323:44:428100:14:50200:18:06|| Tours
11068FL55/Freedom RidersOuvert10223:47:528100:13:572100:15:18|| Tours
111164CGI FUNOuvert10323:48:418100:14:03600:19:23|| Tours
112166Adviso Ski 2Ouvert10423:50:238100:13:511200:16:36|11:50:23| Tours
11394KinessorOuvert10523:50:358100:13:471800:16:15|11:50:35| Tours
11419CIM - Conseil | La crème de SkIMOuvert10623:52:488100:13:122400:16:01|11:52:48| Tours
115239Morency Société d'Avocats 2Ouvert10723:54:038100:13:242200:15:35|11:54:03| Tours
116147Synagri 1Ouvert10823:54:288100:13:471400:17:29|11:54:28| Tours
117213DeloitteOuvert10923:55:448100:13:13500:17:43|11:55:44| Tours
118162YimbyOuvert11023:56:218100:14:512300:16:58|11:56:21| Tours
11999La Coop fédérée - équipe #1Ouvert11123:58:578100:14:491100:15:48|11:58:57| Tours
120186Station Mont TremblantOuvert11223:35:398000:13:562200:18:12|| Tours
121136Remax du CartierOuvert11323:43:568000:14:011700:17:35|| Tours
122106LES DESCENDANTS DE SKI MORIN HEIGHTSJunior623:45:538000:14:15200:16:28|| Tours
123211Les Écureuils BlancJunior723:46:228000:14:272000:17:06|| Tours
12440CASA 2Ouvert11423:46:568000:14:13400:17:16|| Tours
12592Banque Nationale - Gestion de PatrimoineOuvert11523:48:518000:14:52900:17:51|| Tours
126188PwC_Ski 1Ouvert11623:50:088000:13:522100:19:00|11:50:08| Tours
127212Équipe de bosses TremblantJunior823:52:368000:13:50400:16:31|11:52:36| Tours
128134Raymond Chabot Grant Thornton – Équipe #1Ouvert11723:55:428000:14:411100:16:53|11:55:42| Tours
12943Carpe diemOuvert11823:56:038000:14:201400:18:30|11:56:03| Tours
130130One AonOuvert11923:57:048000:14:331300:16:53|11:57:04| Tours
131231thunder lotusOuvert12023:57:058000:14:382300:15:58|11:57:05| Tours
13289Je suis Charlie 4Femme423:57:338000:14:15600:21:58|11:57:33| Tours
1337Les Pivots de Charles-BruneauFemme523:39:137900:13:58500:17:04|| Tours
134176TREMBLANT SUNSTAROuvert12123:43:347900:14:44400:17:17|| Tours
13523CridomOuvert12223:43:547900:14:14900:16:14|11:48:52| Tours
136173CossetteOuvert12323:45:577900:15:182000:27:24|| Tours
137217Les engagésOuvert12423:46:417900:14:091100:17:35|| Tours
138193Les hotshotsOuvert12523:47:037900:14:391400:16:42|| Tours
139126Nolinor AviationOuvert12623:47:057900:13:572300:16:38|| Tours
140102Les Arbres de l'Espoir Fairmont TremblantOuvert12723:47:327900:13:521400:16:00|| Tours
141120MARANT ConstructionOuvert12823:48:077900:14:391400:16:39|| Tours
14273Gestion M.J.L.S. FillesFemme623:49:437900:15:012100:16:48|11:49:43| Tours
14339CASA 1Ouvert12923:50:577900:14:14400:18:31|11:50:57| Tours
14491Johnson ControlsOuvert13023:52:057900:13:332100:15:46|11:52:05| Tours
145199Ottawa SENSationsOuvert13123:52:257900:14:571400:18:26|11:52:25| Tours
146205L'Équipe des employés Casino Mont-TremblantOuvert13223:56:027900:15:381300:19:33|11:56:02| Tours
147146SpiriaOuvert13323:56:527900:14:46600:16:04|11:56:52| Tours
14898KPMG-ski 3Ouvert13423:59:557900:14:51800:15:30|11:59:55| Tours
149113Les ToastsOuvert13524:03:307900:14:38200:16:47|| Tours
150169Coca-ColaOuvert13623:45:407800:15:00400:16:37|| Tours
151139Richter2018Ouvert13723:46:497800:13:54200:16:58|| Tours
152124Montoni Ski 1Ouvert13823:47:297800:13:262100:17:10|| Tours
153125Montoni Ski 2Ouvert13923:47:307800:15:141300:17:05|| Tours
154149Team ChapmanOuvert14023:47:587800:13:53200:17:34|| Tours
155171CGI EdgeOuvert14123:49:007800:15:161700:16:34|| Tours
15647Camso 2Ouvert14223:53:437800:14:232200:17:00|11:53:43| Tours
15715CamsoOuvert14323:53:437800:14:232200:17:01|11:53:43| Tours
15875Groupe Leclair équipe de ski 2Ouvert14423:54:357800:14:271800:18:34|11:54:35| Tours
1593Groupe Yves Gagnon-skiOuvert14523:54:427800:15:262000:16:53|11:54:42| Tours
160229BGIS #2Ouvert14623:55:287800:14:421800:16:25|11:55:28| Tours
16117CGI OttawaOuvert14723:57:167800:14:31900:15:34|11:57:16| Tours
162178Les StudsOuvert14823:57:537800:14:39800:16:35|11:57:53| Tours
16386InterContinental MontréalOuvert14923:43:367700:15:001600:17:20|| Tours
16425donneurs d'espoirs 2 / Whitehaven VM / helly hanseOuvert15023:45:357700:14:521100:17:07|| Tours
165227MatterhornOuvert15123:49:577700:14:46200:17:04|11:49:57| Tours
16621Constantin et Fils Construction incOuvert15223:50:247700:14:321400:15:45|11:50:24| Tours
1676Adviso ski 1Ouvert15323:50:407700:14:412200:16:53|11:50:40| Tours
16833LES EMPEREURS du Collège Letendre 1Ouvert15423:51:127700:14:392100:20:17|11:51:12| Tours
169226Les RôtiesOuvert15523:53:087700:15:061100:16:18|11:53:08| Tours
170100La Coop fédérée équipe #2Ouvert15623:56:317700:14:592000:16:05|11:56:31| Tours
17188Je suis Charlie 3Ouvert15723:36:187600:14:53400:16:40|| Tours
17277Groupe Luminaires S2Ouvert15823:45:117600:13:222200:16:49|| Tours
173225KOMBI & Hot Paws – skiOuvert15923:46:047600:14:24300:18:18|| Tours
17434Danyk 34Ouvert16023:47:547600:14:491500:18:05|| Tours
175232Ottawa SENSations 2Ouvert16123:52:257600:15:181400:18:25|11:52:25| Tours
1768AIPSQ#3Ouvert16223:53:197600:15:381600:16:23|11:53:19| Tours
177209Équipe Charles-BruneauOuvert16323:54:017600:13:521300:15:48|11:54:01| Tours
178230BGIS #3Ouvert16423:55:307600:14:451800:17:03|11:55:30| Tours
179228BGIS #1Ouvert16523:55:307600:14:021800:16:27|11:55:30| Tours
180201libertyolivier47@gmail.com's teamJunior923:57:217600:15:43400:16:23|11:57:21| Tours
18146INSAINE - RabOuvert16623:46:547500:14:031500:18:46|| Tours
18210Beaudry Bertrand, avocatsOuvert16723:48:297500:15:066800:22:16|| Tours
183218Jerry'sOuvert16823:51:257500:13:312400:15:54|11:51:25| Tours
18497KPMG SKI Team 2Ouvert16923:53:557500:14:361800:16:11|11:53:55| Tours
18595KPMG - Ski 1Ouvert17023:56:177500:14:391800:16:34|11:56:17| Tours
186214Synagri 2Ouvert17123:59:357500:15:05400:16:09|11:59:35| Tours
187197Attraction - SkiOuvert17223:47:007400:14:35300:15:13|| Tours
188202LES EMPEREURS du collège Letendre 2Ouvert17323:51:137400:14:412000:20:17|11:51:13| Tours
189133Raymond Chabot Grant Thornton - Équipe #2Ouvert17423:55:027400:13:562100:16:12|11:55:02| Tours
190233Équipe evenkoOuvert17523:43:407300:15:221300:17:54|| Tours
191107Les Ginas de TremblantOuvert17623:45:197300:14:531000:17:39|| Tours
192170Payfacto 1Ouvert17723:47:467300:14:36600:18:13|| Tours
193112NOVAlexOuvert17823:48:147300:13:44500:18:44|| Tours
19429Énergie Brookfield 5Femme723:49:027300:15:07400:16:57|11:49:02| Tours
19535Équipe de Ski Nav CanadaOuvert17923:56:007300:08:392700:19:31|11:56:00| Tours
196122Médisolution SKIOuvert18023:57:577300:14:47700:20:44|11:57:57| Tours
197116LumiGroupOuvert18123:58:117300:14:522000:16:11|11:58:11| Tours
19885InsumOuvert18223:45:597200:14:521100:16:45|| Tours
199208Attraction - Ski IOuvert18323:46:597100:14:382000:19:24|| Tours
20057Équipe EquifaxOuvert18423:49:147100:16:43400:17:43|11:49:14| Tours
201234Équipe ParkbridgeOuvert18523:46:107000:15:37600:16:08|| Tours
20213Boréale – Équipe des Ours en skiOuvert18623:47:547000:14:401500:24:40|| Tours
203129Olodge Café Plein AirOuvert18723:59:377000:12:592500:15:27|11:59:37| Tours
20484IGLOOFESTOuvert18823:40:426900:15:052000:21:20|| Tours
205151Team St-DamOuvert18923:49:556900:14:152000:15:40|11:49:55| Tours
206141Schneider Electric Ski 1Ouvert19023:51:016900:14:30400:16:36|11:51:01| Tours
207138REMI_SKI_2Ouvert19123:33:056800:16:071800:23:05|| Tours
208137REMI_SKI_1Ouvert19223:33:056800:15:13600:23:01|| Tours
209161Vieux bambous de Morin-Heights-skiOuvert19323:45:546800:14:102200:16:06|| Tours
210184Pour l'amour des enfantsOuvert19423:37:216700:16:314600:20:15|| Tours
211216Jakers.treats's teamOuvert19523:17:056600:15:011601:07:32|| Tours
21236Équipe de atwill-morinOuvert19623:56:246600:14:47400:16:11|11:56:24| Tours
213143Sens Foundation Ski 2018Ouvert19723:53:376500:14:231800:16:11|11:53:37| Tours
2149MARANT Construction 2Ouvert19823:56:016300:14:38800:16:26|11:56:01| Tours
215105Les Descendantes de ski Morin HeightsJunior1023:50:566200:15:101500:17:12|11:50:56| Tours
216168KPMG Tax - SkiOuvert19923:56:216000:13:412100:17:57|11:56:21| Tours
21711Boisvert Ski 2018Ouvert20023:57:375700:13:332500:15:25|11:57:37| Tours
21879Groupe Verdun Ski 1Ouvert20123:14:545600:14:42400:19:31|| Tours
21952Laltech climatisationOuvert20221:59:275500:14:381000:17:39|| Tours
22045Matériaux Pont-MassonOuvert20321:59:285500:15:201900:17:39|| Tours
221224Équipe de Groupe V mediaOuvert20423:56:485400:15:00900:15:44|11:56:48| Tours
22262ÉNERGIE 104.1 - Groupe GrenierOuvert20523:50:585300:14:481100:16:33|11:50:58| Tours
22331A4 Architecture + Design | LUMENOuvert20623:50:274800:14:171900:16:38|11:50:27| Tours
224144Service de sécurité incendie Mont-TremblantOuvert20723:46:334400:13:241700:14:58|| Tours
225131Phil and the PillsOuvert20810:41:214200:13:211700:16:27|| Tours
226163YUVAV 1Ouvert20923:39:413800:16:14800:18:08|| Tours
227158Sens ArmyOuvert21010:57:073500:13:451400:35:04|| Tours
2281Vitesse OSISKOOuvert21118:10:513300:15:11403:51:35|| Tours
22966FL55 / Est du QuébecOuvert21223:34:062900:14:10300:24:42|| Tours
230182YUVAV 2Ouvert21323:39:452700:16:16800:18:12|| Tours
231103Bellmedia Ottawa Ski TeamOuvert21423:38:532000:15:36900:20:24|| Tours
12Borden's legacyOuvert00:00:00000:00:00000:00:00|| Tours

Résultats en date du 2018-12-09 12:06:57